Terminal Aerodrome Forecast
Issued by NWS

Home | Current Version | Previous Version | Text Only | Print | Product List | Glossary On
Versions: 1 2 3 4 5 6 7 8 9 10 11 12 13 14 15
000
FTAK31 PAJN 192320
TAFAKT
TAF
PAKT 192320Z 2000/2024 34009KT P6SM FEW008 OVC060
     FM200500 00000KT P6SM VCFG SCT006 BKN060
     FM201100 15005KT 3SM BR VCSH SCT015 BKN025 OVC040
     FM201700 14007KT 4SM -SHRA BR BKN025 OVC050
      AMD LTD TO CLD VIS AND WIND 2006/2015=

USA.gov is the U.S. government's official web portal to all federal, state and local government web resources and services.